createdAt,value
2018-04-06T00:00:00.160Z,91.39
2018-04-06T00:01:00.341Z,91.10
2018-04-06T00:02:00.521Z,91.10
2018-04-06T00:03:00.707Z,91.10
2018-04-06T00:04:00.884Z,90.91
2018-04-06T00:05:01.065Z,90.72
2018-04-06T00:06:01.244Z,91.58
2018-04-06T00:07:01.428Z,91.20
2018-04-06T00:08:01.610Z,91.39
2018-04-06T00:09:01.792Z,91.77
2018-04-06T00:10:01.972Z,91.39
2018-04-06T00:11:02.156Z,91.58
2018-04-06T00:12:02.337Z,91.96
2018-04-06T00:13:02.518Z,91.58
2018-04-06T00:14:02.700Z,91.29
2018-04-06T00:15:02.881Z,90.82
2018-04-06T00:16:03.064Z,90.72
2018-04-06T00:17:03.245Z,91.10
2018-04-06T00:18:03.424Z,91.01
2018-04-06T00:19:03.606Z,91.43
2018-04-06T00:20:03.789Z,92.05
2018-04-06T00:21:03.971Z,91.53
2018-04-06T00:22:04.154Z,91.43
2018-04-06T00:23:04.333Z,91.24
2018-04-06T00:24:04.517Z,91.34
2018-04-06T00:25:04.694Z,91.15
2018-04-06T00:26:04.875Z,91.24
2018-04-06T00:27:05.057Z,92.10
2018-04-06T00:28:05.237Z,92.57
2018-04-06T00:29:05.419Z,92.94
2018-04-06T00:30:05.598Z,93.13
2018-04-06T00:31:05.965Z,92.38
2018-04-06T00:32:06.026Z,92.47
2018-04-06T00:33:06.202Z,92.66
2018-04-06T00:34:06.392Z,92.76
2018-04-06T00:35:06.563Z,93.23
2018-04-06T00:36:06.744Z,93.04
2018-04-06T00:37:06.927Z,93.04
2018-04-06T00:38:07.109Z,93.13
2018-04-06T00:39:07.290Z,93.23
2018-04-06T00:40:07.469Z,93.04
2018-04-06T00:41:07.651Z,93.13
2018-04-06T00:42:07.832Z,93.80
2018-04-06T00:43:08.011Z,93.61
2018-04-06T00:44:08.193Z,93.80
2018-04-06T00:45:08.377Z,94.08
2018-04-06T00:46:08.552Z,93.80
2018-04-06T00:47:08.735Z,93.89
2018-04-06T00:48:08.914Z,94.27
2018-04-06T00:49:09.094Z,94.18
2018-04-06T00:50:09.275Z,93.80
2018-04-06T00:51:09.457Z,93.70
2018-04-06T00:52:09.638Z,93.13
2018-04-06T00:53:09.818Z,93.70
2018-04-06T00:54:09.998Z,93.80
2018-04-06T00:55:10.178Z,93.13
2018-04-06T00:56:10.359Z,93.23
2018-04-06T00:57:10.540Z,92.10
2018-04-06T00:58:10.721Z,92.57
2018-04-06T00:59:10.902Z,93.23
2018-04-06T01:00:11.080Z,93.28
2018-04-06T01:01:11.263Z,93.80
2018-04-06T01:02:11.442Z,94.03
2018-04-06T01:03:11.624Z,94.03
2018-04-06T01:04:11.806Z,94.79
2018-04-06T01:05:11.986Z,94.56
2018-04-06T01:06:12.165Z,94.74
2018-04-06T01:07:12.345Z,94.46
2018-04-06T01:08:12.528Z,94.60
2018-04-06T01:09:12.708Z,94.60
2018-04-06T01:10:12.889Z,94.98
2018-04-06T01:11:13.069Z,94.98
2018-04-06T01:12:13.250Z,94.89
2018-04-06T01:13:13.431Z,94.79
2018-04-06T01:14:13.613Z,94.32
2018-04-06T01:15:13.794Z,93.94
2018-04-06T01:16:13.975Z,93.37
2018-04-06T01:17:14.155Z,93.84
2018-04-06T01:18:14.335Z,94.60
2018-04-06T01:19:14.515Z,94.60
2018-04-06T01:20:14.695Z,94.98
2018-04-06T01:21:14.876Z,95.26
2018-04-06T01:22:15.057Z,94.79
2018-04-06T01:23:15.238Z,94.89
2018-04-06T01:24:15.418Z,94.51
2018-04-06T01:25:15.599Z,94.13
2018-04-06T01:26:15.780Z,94.03
2018-04-06T01:27:15.961Z,93.84
2018-04-06T01:28:16.140Z,94.22
2018-04-06T01:29:16.320Z,94.41
2018-04-06T01:30:16.504Z,95.36
2018-04-06T01:31:16.684Z,95.26
2018-04-06T01:32:16.864Z,95.45
2018-04-06T01:33:17.043Z,95.36
2018-04-06T01:34:17.224Z,95.54
2018-04-06T01:35:17.408Z,95.07
2018-04-06T01:36:17.586Z,95.54
2018-04-06T01:37:17.772Z,96.11
2018-04-06T01:38:17.947Z,95.83
2018-04-06T01:39:18.128Z,96.11
2018-04-06T01:40:18.307Z,95.54
2018-04-06T01:41:18.487Z,96.02
2018-04-06T01:42:18.669Z,95.26
2018-04-06T01:43:18.849Z,95.36
2018-04-06T01:44:19.027Z,95.73
2018-04-06T01:45:19.207Z,96.02
2018-04-06T01:46:19.390Z,95.64
2018-04-06T01:47:19.569Z,96.11
2018-04-06T01:48:19.748Z,94.98
2018-04-06T01:49:19.933Z,94.89
2018-04-06T01:50:20.107Z,95.26
2018-04-06T01:51:20.289Z,94.98
2018-04-06T01:52:20.468Z,94.79
2018-04-06T01:53:20.649Z,94.70
2018-04-06T01:54:20.828Z,94.41
2018-04-06T01:55:21.008Z,94.32
2018-04-06T01:56:21.186Z,94.41
2018-04-06T01:57:21.371Z,94.70
2018-04-06T01:58:21.548Z,95.17
2018-04-06T01:59:21.727Z,95.36
2018-04-06T02:00:21.909Z,95.54
2018-04-06T02:01:22.089Z,95.17
2018-04-06T02:02:22.269Z,95.36
2018-04-06T02:03:22.447Z,94.51
2018-04-06T02:04:22.627Z,94.51
2018-04-06T02:05:22.809Z,94.70
2018-04-06T02:06:22.987Z,94.70
2018-04-06T02:07:23.167Z,94.79
2018-04-06T02:08:23.344Z,95.45
2018-04-06T02:09:23.567Z,95.73
2018-04-06T02:10:23.705Z,96.21
2018-04-06T02:11:23.892Z,95.54
2018-04-06T02:12:24.074Z,95.73
2018-04-06T02:13:24.252Z,96.11
2018-04-06T02:14:24.433Z,95.26
2018-04-06T02:15:24.614Z,95.36
2018-04-06T02:16:24.793Z,95.17
2018-04-06T02:17:24.970Z,94.41
2018-04-06T02:18:25.152Z,94.13
2018-04-06T02:19:25.329Z,93.84
2018-04-06T02:20:25.517Z,93.66
2018-04-06T02:21:25.695Z,93.47
2018-04-06T02:22:25.876Z,93.37
2018-04-06T02:23:26.055Z,93.04
2018-04-06T02:24:26.267Z,94.18
2018-04-06T02:25:26.415Z,94.46
2018-04-06T02:26:26.592Z,95.36
2018-04-06T02:27:26.775Z,95.21
2018-04-06T02:28:26.952Z,95.31
2018-04-06T02:29:27.132Z,95.31
2018-04-06T02:30:27.315Z,95.40
2018-04-06T02:31:27.491Z,94.93
2018-04-06T02:32:27.671Z,95.59
2018-04-06T02:33:27.848Z,95.50
2018-04-06T02:34:28.041Z,95.50
2018-04-06T02:35:28.212Z,95.21
2018-04-06T02:36:28.389Z,95.03
2018-04-06T02:37:28.571Z,96.06
2018-04-06T02:38:28.755Z,95.87
2018-04-06T02:39:28.927Z,95.68
2018-04-06T02:40:29.124Z,95.87
2018-04-06T02:41:29.304Z,96.06
2018-04-06T02:42:29.483Z,95.78
2018-04-06T02:43:29.663Z,96.11
2018-04-06T02:44:29.842Z,96.21
2018-04-06T02:45:30.021Z,96.02
2018-04-06T02:46:30.200Z,96.02
2018-04-06T02:47:30.383Z,95.73
2018-04-06T02:48:30.560Z,96.11
2018-04-06T02:49:30.744Z,95.92
2018-04-06T02:50:30.923Z,96.11
2018-04-06T02:51:31.101Z,96.11
2018-04-06T02:52:31.280Z,95.83
2018-04-06T02:53:31.460Z,96.02
2018-04-06T02:54:31.639Z,96.02
2018-04-06T02:55:31.820Z,95.83
2018-04-06T02:56:32.000Z,96.02
2018-04-06T02:57:32.178Z,95.73
2018-04-06T02:58:32.359Z,95.73
2018-04-06T02:59:32.538Z,95.50
2018-04-06T03:00:32.720Z,95.03
2018-04-06T03:01:32.899Z,95.50
2018-04-06T03:02:33.078Z,94.93
2018-04-06T03:03:33.257Z,94.27
2018-04-06T03:04:33.434Z,94.65
2018-04-06T03:05:33.614Z,94.56
2018-04-06T03:06:33.794Z,94.65
2018-04-06T03:07:33.972Z,94.56
2018-04-06T03:08:34.153Z,94.46
2018-04-06T03:09:34.331Z,94.56
2018-04-06T03:10:34.512Z,93.99
2018-04-06T03:11:34.691Z,93.99
2018-04-06T03:12:34.870Z,94.18
2018-04-06T03:13:35.051Z,94.93
2018-04-06T03:14:35.230Z,96.06
2018-04-06T03:15:35.408Z,95.87
2018-04-06T03:16:35.586Z,95.78
2018-04-06T03:17:35.768Z,95.78
2018-04-06T03:18:35.948Z,95.87
2018-04-06T03:19:36.126Z,95.68
2018-04-06T03:20:36.307Z,95.50
2018-04-06T03:21:36.485Z,95.68
2018-04-06T03:22:36.663Z,95.59
2018-04-06T03:23:36.844Z,95.68
2018-04-06T03:24:37.023Z,95.21
2018-04-06T03:25:37.201Z,95.78
2018-04-06T03:26:37.379Z,95.87
2018-04-06T03:27:37.559Z,95.87
2018-04-06T03:28:37.738Z,96.44
2018-04-06T03:29:37.920Z,96.54
2018-04-06T03:30:38.098Z,96.35
2018-04-06T03:31:38.283Z,96.06
2018-04-06T03:32:38.457Z,96.35
2018-04-06T03:33:38.634Z,96.25
2018-04-06T03:34:38.812Z,96.82
2018-04-06T03:35:38.996Z,96.54
2018-04-06T03:36:39.172Z,96.44
2018-04-06T03:37:39.352Z,96.16
2018-04-06T03:38:39.535Z,95.68
2018-04-06T03:39:39.710Z,95.87
2018-04-06T03:40:39.889Z,95.87
2018-04-06T03:41:40.069Z,95.97
2018-04-06T03:42:40.251Z,96.16
2018-04-06T03:43:40.426Z,95.78
2018-04-06T03:44:40.607Z,95.87
2018-04-06T03:45:40.788Z,95.78
2018-04-06T03:46:40.968Z,95.87
2018-04-06T03:47:41.147Z,96.35
2018-04-06T03:48:41.328Z,96.82
2018-04-06T03:49:41.508Z,96.82
2018-04-06T03:50:41.687Z,96.73
2018-04-06T03:51:41.867Z,96.82
2018-04-06T03:52:42.047Z,96.44
2018-04-06T03:53:42.226Z,95.50
2018-04-06T03:54:42.404Z,95.03
2018-04-06T03:55:42.585Z,95.31
2018-04-06T03:56:42.767Z,95.50
2018-04-06T03:57:42.945Z,95.78
2018-04-06T03:58:43.123Z,96.25
2018-04-06T03:59:43.309Z,95.87
2018-04-06T04:00:43.483Z,96.06
2018-04-06T04:01:43.662Z,96.25
2018-04-06T04:02:43.844Z,96.44
2018-04-06T04:03:44.025Z,96.06
2018-04-06T04:04:44.203Z,96.16
2018-04-06T04:05:44.381Z,96.82
2018-04-06T04:06:44.560Z,96.73
2018-04-06T04:07:44.740Z,97.10
2018-04-06T04:08:44.920Z,97.01
2018-04-06T04:09:45.101Z,96.91
2018-04-06T04:10:45.280Z,96.63
2018-04-06T04:11:45.458Z,96.73
2018-04-06T04:12:45.640Z,96.63
2018-04-06T04:13:45.818Z,96.91
2018-04-06T04:14:45.999Z,96.35
2018-04-06T04:15:46.177Z,96.06
2018-04-06T04:16:46.362Z,96.16
2018-04-06T04:17:46.537Z,96.35
2018-04-06T04:18:46.716Z,95.87
2018-04-06T04:19:46.898Z,95.78
2018-04-06T04:20:47.075Z,96.16
2018-04-06T04:21:47.256Z,96.54
2018-04-06T04:22:47.436Z,97.29
2018-04-06T04:23:47.616Z,97.48
2018-04-06T04:24:47.795Z,97.01
2018-04-06T04:25:47.980Z,96.82
2018-04-06T04:26:48.154Z,96.54
2018-04-06T04:27:48.333Z,95.68
2018-04-06T04:28:48.513Z,95.68
2018-04-06T04:29:48.694Z,95.87
2018-04-06T04:30:48.876Z,96.35
2018-04-06T04:31:49.053Z,96.06
2018-04-06T04:32:49.234Z,96.73
2018-04-06T04:33:49.412Z,96.82
2018-04-06T04:34:49.591Z,96.63
2018-04-06T04:35:49.771Z,96.73
2018-04-06T04:36:49.955Z,96.82
2018-04-06T04:37:50.130Z,96.44
2018-04-06T04:38:50.311Z,97.01
2018-04-06T04:39:50.490Z,96.91
2018-04-06T04:40:50.672Z,96.63
2018-04-06T04:41:50.850Z,96.16
2018-04-06T04:42:51.031Z,96.63
2018-04-06T04:43:51.213Z,96.82
2018-04-06T04:44:51.391Z,96.91
2018-04-06T04:45:51.568Z,97.48
2018-04-06T04:46:51.754Z,97.20
2018-04-06T04:47:51.928Z,97.29
2018-04-06T04:48:52.109Z,97.01
2018-04-06T04:49:52.301Z,96.54
2018-04-06T04:50:52.469Z,96.91
2018-04-06T04:51:52.649Z,96.63
2018-04-06T04:52:52.830Z,96.06
2018-04-06T04:53:53.008Z,96.06
2018-04-06T04:54:53.188Z,96.16
2018-04-06T04:55:53.367Z,96.16
2018-04-06T04:56:53.537Z,95.68
2018-04-06T04:57:53.745Z,95.78
2018-04-06T04:58:53.910Z,95.68
2018-04-06T04:59:54.090Z,95.68
2018-04-06T05:00:54.267Z,95.78
2018-04-06T05:01:54.447Z,95.97
2018-04-06T05:02:54.627Z,96.25
2018-04-06T05:03:54.812Z,95.68
2018-04-06T05:04:54.990Z,95.78
2018-04-06T05:05:55.168Z,95.59
2018-04-06T05:06:55.347Z,95.87
2018-04-06T05:07:55.525Z,95.78
2018-04-06T05:08:55.705Z,95.68
2018-04-06T05:09:55.884Z,95.78
2018-04-06T05:10:56.065Z,95.78
2018-04-06T05:11:56.244Z,95.73
2018-04-06T05:12:56.425Z,95.54
2018-04-06T05:13:56.604Z,95.92
2018-04-06T05:14:56.784Z,96.02
2018-04-06T05:15:56.969Z,96.49
2018-04-06T05:16:57.145Z,95.54
2018-04-06T05:17:57.326Z,96.02
2018-04-06T05:18:57.505Z,96.11
2018-04-06T05:19:57.685Z,95.73
2018-04-06T05:20:57.866Z,96.02
2018-04-06T05:21:58.047Z,95.73
2018-04-06T05:22:58.228Z,95.92
2018-04-06T05:23:58.406Z,95.92
2018-04-06T05:24:58.586Z,96.49
2018-04-06T05:25:58.784Z,96.49
2018-04-06T05:26:58.965Z,96.68
2018-04-06T05:27:59.145Z,96.49
2018-04-06T05:28:59.325Z,96.49
2018-04-06T05:29:59.505Z,96.11
2018-04-06T05:30:59.688Z,95.88
2018-04-06T05:31:59.872Z,95.88
2018-04-06T05:33:00.049Z,96.16
2018-04-06T05:34:00.230Z,95.78
2018-04-06T05:35:00.409Z,95.78
2018-04-06T05:36:00.589Z,95.31
2018-04-06T05:37:00.771Z,95.40
2018-04-06T05:38:00.953Z,95.97
2018-04-06T05:39:01.132Z,96.16
2018-04-06T05:40:01.314Z,95.88
2018-04-06T05:41:01.496Z,96.07
2018-04-06T05:42:01.675Z,95.40
2018-04-06T05:43:01.858Z,95.78
2018-04-06T05:44:02.039Z,95.12
2018-04-06T05:45:02.221Z,95.59
2018-04-06T05:46:02.402Z,95.03
2018-04-06T05:47:02.585Z,95.12
2018-04-06T05:48:02.764Z,94.65
2018-04-06T05:49:02.946Z,94.08
2018-04-06T05:50:03.127Z,94.65
2018-04-06T05:51:03.320Z,94.65
2018-04-06T05:52:03.490Z,95.03
2018-04-06T05:53:03.690Z,95.40
2018-04-06T05:54:03.853Z,95.59
2018-04-06T05:55:04.037Z,95.40
2018-04-06T05:56:04.222Z,95.59
2018-04-06T05:57:04.404Z,95.12
2018-04-06T05:58:04.584Z,95.45
2018-04-06T05:59:04.771Z,95.36
2018-04-06T06:00:04.949Z,94.60
2018-04-06T06:01:05.136Z,94.13
2018-04-06T06:02:05.317Z,93.56
2018-04-06T06:03:05.498Z,92.76
2018-04-06T06:04:05.682Z,93.51
2018-04-06T06:05:05.864Z,94.27
2018-04-06T06:06:06.047Z,94.27
2018-04-06T06:07:06.230Z,94.93
2018-04-06T06:08:06.412Z,95.21
2018-04-06T06:09:06.595Z,95.03
2018-04-06T06:10:06.778Z,94.65
2018-04-06T06:11:06.962Z,95.12
2018-04-06T06:12:07.144Z,95.40
2018-04-06T06:13:07.328Z,95.78
2018-04-06T06:14:07.511Z,96.16
2018-04-06T06:15:07.694Z,95.40
2018-04-06T06:16:07.877Z,95.59
2018-04-06T06:17:08.061Z,95.97
2018-04-06T06:18:08.244Z,95.55
2018-04-06T06:19:08.427Z,95.45
2018-04-06T06:20:08.611Z,94.98
2018-04-06T06:21:08.797Z,94.74
2018-04-06T06:22:08.980Z,93.70
2018-04-06T06:23:09.162Z,92.66
2018-04-06T06:24:09.347Z,92.10
2018-04-06T06:25:09.531Z,91.76
2018-04-06T06:26:09.716Z,90.72
2018-04-06T06:27:09.901Z,89.49
2018-04-06T06:28:10.085Z,88.54
2018-04-06T06:29:10.354Z,86.88
2018-04-06T06:30:10.459Z,86.03
2018-04-06T06:31:10.650Z,85.13
2018-04-06T06:32:10.831Z,85.66
2018-04-06T06:33:11.019Z,86.41
2018-04-06T06:34:11.202Z,87.12
2018-04-06T06:35:11.386Z,86.36
2018-04-06T06:36:11.574Z,85.32
2018-04-06T06:37:11.761Z,85.08
2018-04-06T06:38:11.945Z,84.80
2018-04-06T06:39:12.133Z,83.80
2018-04-06T06:40:12.321Z,82.09
2018-04-06T06:41:12.508Z,79.19
2018-04-06T06:42:12.696Z,77.29
2018-04-06T06:43:12.886Z,77.58
2018-04-06T06:44:13.088Z,77.14
2018-04-06T06:45:13.264Z,75.49
2018-04-06T06:46:13.454Z,75.59
2018-04-06T06:47:13.645Z,77.06
2018-04-06T06:48:13.849Z,79.39
2018-04-06T06:49:14.031Z,80.63
2018-04-06T06:50:14.217Z,80.91
2018-04-06T06:51:14.408Z,81.62
2018-04-06T06:52:14.597Z,80.24
2018-04-06T06:53:14.792Z,76.95
2018-04-06T06:54:14.983Z,75.72
2018-04-06T06:55:15.177Z,75.34
2018-04-06T06:56:15.370Z,74.39
2018-04-06T06:57:15.563Z,73.16
2018-04-06T06:58:15.758Z,72.88
2018-04-06T06:59:15.950Z,73.10
2018-04-06T07:00:16.142Z,72.95
2018-04-06T07:01:16.336Z,72.56
2018-04-06T07:02:16.530Z,71.14
2018-04-06T07:03:16.723Z,70.95
2018-04-06T07:04:16.917Z,70.42
2018-04-06T07:05:17.111Z,69.46
2018-04-06T07:06:17.304Z,68.27
2018-04-06T07:07:17.499Z,67.50
2018-04-06T07:08:17.695Z,66.20
2018-04-06T07:09:17.891Z,63.67
2018-04-06T07:10:18.084Z,63.29
2018-04-06T07:11:18.281Z,62.43
2018-04-06T07:12:18.482Z,63.67
2018-04-06T07:13:18.675Z,66.17
2018-04-06T07:14:18.869Z,70.98
2018-04-06T07:15:19.067Z,73.52
2018-04-06T07:16:19.262Z,71.66
2018-04-06T07:17:19.460Z,68.80
2018-04-06T07:18:19.660Z,66.17
2018-04-06T07:19:19.858Z,66.20
2018-04-06T07:20:20.056Z,65.92
2018-04-06T07:21:20.254Z,65.73
2018-04-06T07:22:20.452Z,68.86
2018-04-06T07:23:20.651Z,69.56
2018-04-06T07:24:20.849Z,66.61
2018-04-06T07:25:21.048Z,68.39
2018-04-06T07:26:21.245Z,69.09
2018-04-06T07:27:21.442Z,67.38
2018-04-06T07:28:21.643Z,66.74
2018-04-06T07:29:21.843Z,65.16
2018-04-06T07:30:22.043Z,63.39
2018-04-06T07:31:22.243Z,62.34
2018-04-06T07:32:22.444Z,61.74
2018-04-06T07:33:22.645Z,63.17
2018-04-06T07:34:22.842Z,63.39
2018-04-06T07:35:23.045Z,64.18
2018-04-06T07:36:23.240Z,65.70
2018-04-06T07:37:23.441Z,64.56
2018-04-06T07:38:23.639Z,64.24
2018-04-06T07:39:23.844Z,62.91
2018-04-06T07:40:24.039Z,61.04
2018-04-06T07:41:24.239Z,60.30
2018-04-06T07:42:24.438Z,59.80
2018-04-06T07:43:24.638Z,59.61
2018-04-06T07:44:24.850Z,61.16
2018-04-06T07:45:25.039Z,64.14
2018-04-06T07:46:25.240Z,68.54
2018-04-06T07:47:25.439Z,71.64
2018-04-06T07:48:25.640Z,73.44
2018-04-06T07:49:25.839Z,75.24
2018-04-06T07:50:26.040Z,76.20
2018-04-06T07:51:26.246Z,75.05
2018-04-06T07:52:26.440Z,74.96
2018-04-06T07:53:26.641Z,74.20
2018-04-06T07:54:26.846Z,74.68
2018-04-06T07:55:27.041Z,73.82
2018-04-06T07:56:27.241Z,74.20
2018-04-06T07:57:27.441Z,74.87
2018-04-06T07:58:27.640Z,74.87
2018-04-06T07:59:27.841Z,75.34
2018-04-06T08:00:28.045Z,75.62
2018-04-06T08:01:28.243Z,75.62
2018-04-06T08:02:28.441Z,74.33
2018-04-06T08:03:28.636Z,75.00
2018-04-06T08:04:28.837Z,74.90
2018-04-06T08:05:29.035Z,72.95
2018-04-06T08:06:29.233Z,70.64
2018-04-06T08:07:29.434Z,69.60
2018-04-06T08:08:29.646Z,68.55
2018-04-06T08:09:29.835Z,66.94
2018-04-06T08:10:30.034Z,66.91
2018-04-06T08:11:30.233Z,62.88
2018-04-06T08:12:30.438Z,61.00
2018-04-06T08:13:30.663Z,63.07
2018-04-06T08:14:30.844Z,63.48
2018-04-06T08:15:31.034Z,63.10
2018-04-06T08:16:31.238Z,62.65
2018-04-06T08:17:31.434Z,60.53
2018-04-06T08:18:31.635Z,61.74
2018-04-06T08:19:31.832Z,63.48
2018-04-06T08:20:32.034Z,65.60
2018-04-06T08:21:32.232Z,65.06
2018-04-06T08:22:32.430Z,65.13
2018-04-06T08:23:32.632Z,66.17
2018-04-06T08:24:32.832Z,66.42
2018-04-06T08:25:33.042Z,66.80
2018-04-06T08:26:33.231Z,65.64
2018-04-06T08:27:33.431Z,64.50
2018-04-06T08:28:33.629Z,63.83
2018-04-06T08:29:33.829Z,63.89
2018-04-06T08:30:34.027Z,62.69
2018-04-06T08:31:34.226Z,62.78
2018-04-06T08:32:34.425Z,60.82
2018-04-06T08:33:34.623Z,57.70
2018-04-06T08:34:34.825Z,55.90
2018-04-06T08:35:35.027Z,54.97
2018-04-06T08:36:35.224Z,52.49
2018-04-06T08:37:35.419Z,51.28
2018-04-06T08:38:35.622Z,50.59
2018-04-06T08:39:35.819Z,51.95
2018-04-06T08:40:36.016Z,51.66
2018-04-06T08:41:36.213Z,50.04
2018-04-06T08:42:36.411Z,49.56
2018-04-06T08:43:36.612Z,49.18
2018-04-06T08:44:36.811Z,49.66
2018-04-06T08:45:37.013Z,51.16
2018-04-06T08:46:37.208Z,51.16
2018-04-06T08:47:37.405Z,50.13
2018-04-06T08:48:37.602Z,50.04
2018-04-06T08:49:37.805Z,48.99
2018-04-06T08:50:37.998Z,49.28
2018-04-06T08:51:38.200Z,49.18
2018-04-06T08:52:38.396Z,49.18
2018-04-06T08:53:38.591Z,50.16
2018-04-06T08:54:38.843Z,50.07
2018-04-06T08:55:38.987Z,47.30
2018-04-06T08:56:39.183Z,44.63
2018-04-06T08:57:39.382Z,45.18
2018-04-06T08:58:39.578Z,46.34
2018-04-06T08:59:39.776Z,47.30
2018-04-06T09:00:39.973Z,47.30
2018-04-06T09:01:40.167Z,48.23
2018-04-06T09:02:40.365Z,49.11
2018-04-06T09:03:40.561Z,50.35
2018-04-06T09:04:40.773Z,48.63
2018-04-06T09:05:40.955Z,48.25
2018-04-06T09:06:41.151Z,48.18
2018-04-06T09:07:41.346Z,46.56
2018-04-06T09:08:41.540Z,44.65
2018-04-06T09:09:41.734Z,45.13
2018-04-06T09:10:41.930Z,45.22
2018-04-06T09:11:42.128Z,45.87
2018-04-06T09:12:42.402Z,46.66
2018-04-06T09:13:42.516Z,46.27
2018-04-06T09:14:42.726Z,44.94
2018-04-06T09:15:42.907Z,43.98
2018-04-06T09:16:43.101Z,41.22
2018-04-06T09:17:43.297Z,41.20
2018-04-06T09:18:43.492Z,40.70
2018-04-06T09:19:43.696Z,42.24
2018-04-06T09:20:43.882Z,42.70
2018-04-06T09:21:44.075Z,42.53
2018-04-06T09:22:44.275Z,42.15
2018-04-06T09:23:44.469Z,40.63
2018-04-06T09:24:44.664Z,42.13
2018-04-06T09:25:44.861Z,43.58
2018-04-06T09:26:45.053Z,43.58
2018-04-06T09:27:45.247Z,42.55
2018-04-06T09:28:45.440Z,43.03
2018-04-06T09:29:45.632Z,43.89
2018-04-06T09:30:45.825Z,42.27
2018-04-06T09:31:46.018Z,41.50
2018-04-06T09:32:46.212Z,41.31
2018-04-06T09:33:46.406Z,42.08
2018-04-06T09:34:46.608Z,41.12
2018-04-06T09:35:46.795Z,40.55
2018-04-06T09:36:46.987Z,40.83
2018-04-06T09:37:47.180Z,41.41
2018-04-06T09:38:47.373Z,42.36
2018-04-06T09:39:47.566Z,41.31
2018-04-06T09:40:47.759Z,41.03
2018-04-06T09:41:47.954Z,37.97
2018-04-06T09:42:48.146Z,38.26
2018-04-06T09:43:48.339Z,39.02
2018-04-06T09:44:48.531Z,37.78
2018-04-06T09:45:48.723Z,37.66
2018-04-06T09:46:48.914Z,38.53
2018-04-06T09:47:49.107Z,39.19
2018-04-06T09:48:49.299Z,39.95
2018-04-06T09:49:49.492Z,39.98
2018-04-06T09:50:49.687Z,39.98
2018-04-06T09:51:49.876Z,39.86
2018-04-06T09:52:50.070Z,39.02
2018-04-06T09:53:50.302Z,39.12
2018-04-06T09:54:50.452Z,39.00
2018-04-06T09:55:50.645Z,39.19
2018-04-06T09:56:50.835Z,38.62
2018-04-06T09:57:51.025Z,38.43
2018-04-06T09:58:51.216Z,38.81
2018-04-06T09:59:51.407Z,39.76
2018-04-06T10:00:51.599Z,38.53
2018-04-06T10:01:51.794Z,39.10
2018-04-06T10:02:51.983Z,38.91
2018-04-06T10:03:52.180Z,39.12
2018-04-06T10:04:52.362Z,38.93
2018-04-06T10:05:52.552Z,38.64
2018-04-06T10:06:52.744Z,38.73
2018-04-06T10:07:52.934Z,39.12
2018-04-06T10:08:53.125Z,38.07
2018-04-06T10:09:53.316Z,35.95
2018-04-06T10:10:53.558Z,36.24
2018-04-06T10:11:53.703Z,37.66
2018-04-06T10:12:53.871Z,38.34
2018-04-06T10:13:54.064Z,38.53
2018-04-06T10:14:54.254Z,39.19
2018-04-06T10:15:54.444Z,39.86
2018-04-06T10:16:54.636Z,39.10
2018-04-06T10:17:54.824Z,38.24
2018-04-06T10:18:55.018Z,38.62
2018-04-06T10:19:55.202Z,38.54
2018-04-06T10:20:55.393Z,38.83
2018-04-06T10:21:55.586Z,39.02
2018-04-06T10:22:55.776Z,37.95
2018-04-06T10:23:55.962Z,37.59
2018-04-06T10:24:56.154Z,38.05
2018-04-06T10:25:56.341Z,38.05
2018-04-06T10:26:56.530Z,37.86
2018-04-06T10:27:56.720Z,36.90
2018-04-06T10:28:56.911Z,35.95
2018-04-06T10:29:57.103Z,36.64
2018-04-06T10:30:57.302Z,36.64
2018-04-06T10:31:57.483Z,36.07
2018-04-06T10:32:57.673Z,34.92
2018-04-06T10:33:57.863Z,34.82
2018-04-06T10:34:58.057Z,34.16
2018-04-06T10:35:58.241Z,36.54
2018-04-06T10:36:58.433Z,37.02
2018-04-06T10:37:58.620Z,34.46
2018-04-06T10:38:58.811Z,34.46
2018-04-06T10:39:59.006Z,33.68
2018-04-06T10:40:59.188Z,33.58
2018-04-06T10:41:59.378Z,33.39
2018-04-06T10:42:59.566Z,31.39
2018-04-06T10:43:59.757Z,31.29
2018-04-06T10:44:59.945Z,30.15
2018-04-06T10:46:00.134Z,30.32
2018-04-06T10:47:00.323Z,29.75
2018-04-06T10:48:00.515Z,29.66
2018-04-06T10:49:00.704Z,30.13
2018-04-06T10:50:00.892Z,29.66
2018-04-06T10:51:01.082Z,29.08
2018-04-06T10:52:01.271Z,28.70
2018-04-06T10:53:01.460Z,27.56
2018-04-06T10:54:01.648Z,27.37
2018-04-06T10:55:01.839Z,28.72
2018-04-06T10:56:02.028Z,28.81
2018-04-06T10:57:02.217Z,28.43
2018-04-06T10:58:02.406Z,29.02
2018-04-06T10:59:02.596Z,27.59
2018-04-06T11:00:02.785Z,25.28
2018-04-06T11:01:02.980Z,26.33
2018-04-06T11:02:03.166Z,26.92
2018-04-06T11:03:03.433Z,27.68
2018-04-06T11:04:03.499Z,27.20
2018-04-06T11:05:03.689Z,27.20
2018-04-06T11:06:03.875Z,26.54
2018-04-06T11:07:04.065Z,26.14
2018-04-06T11:08:04.253Z,26.33
2018-04-06T11:09:04.440Z,27.00
2018-04-06T11:10:04.642Z,27.09
2018-04-06T11:11:04.822Z,26.52
2018-04-06T11:12:05.013Z,25.19
2018-04-06T11:13:05.200Z,26.43
2018-04-06T11:14:05.390Z,27.00
2018-04-06T11:15:05.579Z,26.33
2018-04-06T11:16:05.767Z,27.00
2018-04-06T11:17:05.958Z,27.00
2018-04-06T11:18:06.147Z,27.57
2018-04-06T11:19:06.338Z,27.19
2018-04-06T11:20:06.527Z,27.28
2018-04-06T11:21:06.715Z,26.81
2018-04-06T11:22:06.904Z,27.19
2018-04-06T11:23:07.110Z,27.00
2018-04-06T11:24:07.286Z,27.01
2018-04-06T11:25:07.473Z,27.68
2018-04-06T11:26:07.664Z,27.30
2018-04-06T11:27:07.853Z,28.35
2018-04-06T11:28:08.039Z,28.83
2018-04-06T11:29:08.228Z,26.92
2018-04-06T11:30:08.416Z,25.38
2018-04-06T11:31:08.606Z,26.04
2018-04-06T11:32:08.839Z,26.72
2018-04-06T11:33:08.983Z,25.09
2018-04-06T11:34:09.209Z,26.33
2018-04-06T11:35:09.380Z,26.14
2018-04-06T11:36:09.570Z,24.99
2018-04-06T11:37:09.759Z,24.44
2018-04-06T11:38:09.951Z,24.91
2018-04-06T11:39:10.136Z,26.54
2018-04-06T11:40:10.325Z,27.39
2018-04-06T11:41:10.514Z,26.44
2018-04-06T11:42:10.703Z,26.34
2018-04-06T11:43:10.890Z,27.01
2018-04-06T11:44:11.140Z,25.77
2018-04-06T11:45:11.269Z,25.39
2018-04-06T11:46:11.456Z,24.82
2018-04-06T11:47:11.645Z,24.34
2018-04-06T11:48:11.833Z,23.86
2018-04-06T11:49:12.022Z,25.01
2018-04-06T11:50:12.210Z,24.82
2018-04-06T11:51:12.398Z,24.44
2018-04-06T11:52:12.588Z,24.33
2018-04-06T11:53:12.777Z,25.28
2018-04-06T11:54:13.010Z,25.67
2018-04-06T11:55:13.153Z,26.14
2018-04-06T11:56:13.341Z,26.90
2018-04-06T11:57:13.529Z,27.00
2018-04-06T11:58:13.718Z,26.33
2018-04-06T11:59:13.906Z,25.28
2018-04-06T12:00:14.098Z,26.44
2018-04-06T12:01:14.283Z,26.44
2018-04-06T12:02:14.470Z,26.34
2018-04-06T12:03:14.658Z,25.96
2018-04-06T12:04:14.845Z,24.44
2018-04-06T12:05:15.034Z,25.10
2018-04-06T12:06:15.227Z,24.82
2018-04-06T12:07:15.408Z,24.63
2018-04-06T12:08:15.597Z,25.76
2018-04-06T12:09:15.788Z,27.38
2018-04-06T12:10:15.973Z,27.57
2018-04-06T12:11:16.164Z,28.35
2018-04-06T12:12:16.353Z,28.73
2018-04-06T12:13:16.542Z,29.10
2018-04-06T12:14:16.728Z,29.19
2018-04-06T12:15:16.919Z,28.73
2018-04-06T12:16:17.108Z,27.39
2018-04-06T12:17:17.293Z,27.30
2018-04-06T12:18:17.484Z,27.59
2018-04-06T12:19:17.672Z,27.39
2018-04-06T12:20:17.861Z,29.02
2018-04-06T12:21:18.047Z,29.02
2018-04-06T12:22:18.235Z,29.49
2018-04-06T12:23:18.424Z,29.59
2018-04-06T12:24:18.611Z,30.75
2018-04-06T12:25:18.800Z,30.08
2018-04-06T12:26:18.989Z,29.30
2018-04-06T12:27:19.177Z,28.73
2018-04-06T12:28:19.365Z,29.69
2018-04-06T12:29:19.553Z,29.88
2018-04-06T12:30:19.747Z,30.08
2018-04-06T12:31:19.929Z,29.89
2018-04-06T12:32:20.119Z,30.18
2018-04-06T12:33:20.305Z,29.32
2018-04-06T12:34:20.496Z,29.02
2018-04-06T12:35:20.687Z,28.73
2018-04-06T12:36:20.870Z,28.92
2018-04-06T12:37:21.057Z,29.32
2018-04-06T12:38:21.244Z,28.92
2018-04-06T12:39:21.432Z,27.78
2018-04-06T12:40:21.623Z,27.59
2018-04-06T12:41:21.812Z,27.59
2018-04-06T12:42:21.998Z,27.78
2018-04-06T12:43:22.186Z,29.02
2018-04-06T12:44:22.378Z,28.92
2018-04-06T12:45:22.564Z,29.59
2018-04-06T12:46:22.751Z,29.03
2018-04-06T12:47:22.940Z,29.99
2018-04-06T12:48:23.127Z,30.08
2018-04-06T12:49:23.316Z,28.94
2018-04-06T12:50:23.507Z,29.03
2018-04-06T12:51:23.690Z,30.18
2018-04-06T12:52:23.877Z,29.41
2018-04-06T12:53:24.066Z,28.94
2018-04-06T12:54:24.252Z,28.54